createdAt,value
2023-04-08T00:03:54.015Z,22.40
2023-04-08T00:08:59.201Z,22.40
2023-04-08T00:14:04.740Z,22.40
2023-04-08T00:19:10.078Z,22.60
2023-04-08T00:24:15.412Z,22.90
2023-04-08T00:29:23.547Z,23.20
2023-04-08T00:34:28.549Z,23.30
2023-04-08T00:39:33.903Z,23.20
2023-04-08T00:44:39.040Z,23.40
2023-04-08T00:49:45.043Z,23.40
2023-04-08T00:54:49.983Z,23.30
2023-04-08T00:59:56.238Z,23.30
2023-04-08T01:05:09.698Z,23.30
2023-04-08T01:10:24.907Z,23.10
2023-04-08T01:15:31.309Z,23.30
2023-04-08T01:20:36.684Z,23.40
2023-04-08T01:25:41.564Z,23.10
2023-04-08T01:30:54.510Z,22.80
2023-04-08T01:35:59.781Z,22.60
2023-04-08T01:41:06.101Z,22.50
2023-04-08T01:46:13.161Z,22.80
2023-04-08T01:51:19.216Z,23.10
2023-04-08T01:56:25.155Z,23.00
2023-04-08T02:01:31.852Z,23.00
2023-04-08T02:06:38.612Z,22.70
2023-04-08T02:11:43.792Z,22.30
2023-04-08T02:17:00.640Z,22.30
2023-04-08T02:22:11.085Z,22.20
2023-04-08T02:27:17.721Z,22.40
2023-04-08T02:32:25.000Z,22.70
2023-04-08T02:37:35.544Z,22.60
2023-04-08T02:42:40.897Z,22.70
2023-04-08T02:47:48.104Z,22.60
2023-04-08T02:52:53.039Z,22.30
2023-04-08T02:57:58.140Z,21.90
2023-04-08T03:03:03.847Z,21.60
2023-04-08T03:08:11.177Z,22.00
2023-04-08T03:13:16.030Z,22.00
2023-04-08T03:18:21.599Z,21.70
2023-04-08T03:23:26.752Z,21.50
2023-04-08T03:28:31.932Z,22.00
2023-04-08T03:33:37.346Z,22.10
2023-04-08T03:38:43.046Z,22.00
2023-04-08T03:43:48.121Z,21.90
2023-04-08T03:48:54.793Z,21.80
2023-04-08T03:54:00.818Z,21.90
2023-04-08T03:59:05.977Z,22.00
2023-04-08T04:04:15.566Z,21.90
2023-04-08T04:09:21.511Z,21.50
2023-04-08T04:14:27.193Z,21.40
2023-04-08T04:19:35.876Z,21.50
2023-04-08T04:24:41.235Z,21.60
2023-04-08T04:29:46.906Z,21.80
2023-04-08T04:34:52.266Z,21.70
2023-04-08T04:39:57.261Z,21.60
2023-04-08T04:45:02.374Z,21.80
2023-04-08T04:50:08.404Z,22.00
2023-04-08T04:55:14.438Z,22.00
2023-04-08T05:00:19.297Z,22.20
2023-04-08T05:05:24.312Z,22.00
2023-04-08T05:10:29.307Z,22.40
2023-04-08T05:15:34.452Z,22.40
2023-04-08T05:20:42.338Z,22.00
2023-04-08T05:25:47.627Z,22.00
2023-04-08T05:30:53.686Z,21.90
2023-04-08T05:35:59.011Z,22.30
2023-04-08T05:41:03.551Z,22.40
2023-04-08T05:46:09.648Z,22.10
2023-04-08T05:51:18.076Z,22.00
2023-04-08T05:56:23.737Z,22.00
2023-04-08T06:01:29.092Z,22.10
2023-04-08T06:06:37.060Z,22.00
2023-04-08T06:11:46.095Z,22.00
2023-04-08T06:16:51.154Z,21.90
2023-04-08T06:22:07.012Z,22.30
2023-04-08T06:27:11.948Z,22.60
2023-04-08T06:32:17.429Z,22.20
2023-04-08T06:37:22.548Z,21.80
2023-04-08T06:42:33.761Z,21.70
2023-04-08T06:54:09.521Z,21.90
2023-04-08T06:59:14.369Z,22.20
2023-04-08T07:04:19.868Z,22.20
2023-04-08T07:10:10.367Z,21.90
2023-04-08T07:15:34.576Z,21.80
2023-04-08T07:20:40.264Z,21.70
2023-04-08T07:25:45.329Z,21.50
2023-04-08T07:30:50.689Z,21.60
2023-04-08T07:35:55.758Z,21.70
2023-04-08T07:41:02.078Z,21.70
2023-04-08T07:46:10.268Z,21.70
2023-04-08T07:51:16.346Z,21.60
2023-04-08T07:56:25.487Z,21.50
2023-04-08T08:01:32.739Z,21.30
2023-04-08T08:06:37.745Z,21.40
2023-04-08T08:11:42.607Z,21.90
2023-04-08T08:16:47.817Z,21.70
2023-04-08T08:21:53.738Z,21.40
2023-04-08T08:26:59.238Z,21.30
2023-04-08T08:32:07.339Z,21.50
2023-04-08T08:37:13.485Z,21.70
2023-04-08T08:42:31.880Z,21.70
2023-04-08T08:48:25.935Z,21.90
2023-04-08T08:53:35.755Z,21.70
2023-04-08T08:58:41.227Z,21.40
2023-04-08T09:03:46.536Z,21.60
2023-04-08T09:08:52.539Z,21.70
2023-04-08T09:14:00.313Z,21.80
2023-04-08T09:19:13.215Z,21.70
2023-04-08T09:24:32.784Z,21.30
2023-04-08T09:29:40.060Z,21.00
2023-04-08T09:34:45.350Z,21.40
2023-04-08T09:39:50.416Z,21.40
2023-04-08T09:44:56.228Z,21.40
2023-04-08T09:50:07.281Z,21.20
2023-04-08T09:55:16.812Z,20.90
2023-04-08T10:00:23.697Z,20.90
2023-04-08T10:05:29.342Z,20.80
2023-04-08T10:10:34.204Z,20.70
2023-04-08T10:15:41.093Z,20.60
2023-04-08T10:40:40.552Z,20.60
2023-04-08T10:45:52.859Z,20.50
2023-04-08T10:51:05.312Z,20.40
2023-04-08T10:56:17.774Z,20.50
2023-04-08T11:01:24.535Z,20.40
2023-04-08T11:12:34.098Z,20.10
2023-04-08T11:17:40.078Z,20.10
2023-04-08T11:22:52.965Z,20.10
2023-04-08T11:28:01.529Z,20.10
2023-04-08T11:33:07.050Z,20.00
2023-04-08T11:38:14.141Z,20.00
2023-04-08T11:43:20.173Z,20.10
2023-04-08T11:48:25.923Z,20.00
2023-04-08T11:54:16.201Z,19.90
2023-04-08T11:59:27.438Z,19.80
2023-04-08T12:04:35.632Z,19.90
2023-04-08T12:09:47.827Z,20.00
2023-04-08T12:14:54.317Z,19.90
2023-04-08T12:20:00.698Z,19.80
2023-04-08T12:25:09.777Z,19.80
2023-04-08T12:35:37.120Z,19.90
2023-04-08T12:40:43.567Z,19.90
2023-04-08T12:45:58.322Z,19.80
2023-04-08T12:51:04.753Z,19.80
2023-04-08T12:56:10.328Z,19.90
2023-04-08T13:01:16.143Z,20.00
2023-04-08T13:06:28.759Z,20.00
2023-04-08T13:12:04.658Z,20.00
2023-04-08T13:17:19.945Z,20.00
2023-04-08T13:22:25.648Z,20.00
2023-04-08T13:27:32.311Z,20.20
2023-04-08T13:32:38.482Z,20.20
2023-04-08T13:37:44.240Z,20.10
2023-04-08T13:42:50.302Z,20.20
2023-04-08T13:47:56.126Z,20.10
2023-04-08T13:53:02.796Z,20.10
2023-04-08T13:58:24.410Z,20.20
2023-04-08T14:03:30.446Z,20.20
2023-04-08T14:08:36.561Z,20.00
2023-04-08T14:13:41.889Z,20.00
2023-04-08T14:18:48.294Z,20.00
2023-04-08T14:23:55.620Z,20.00
2023-04-08T14:29:01.667Z,19.90
2023-04-08T14:34:06.588Z,19.90
2023-04-08T14:39:13.615Z,19.80
2023-04-08T14:44:19.211Z,19.70
2023-04-08T14:49:25.767Z,19.60
2023-04-08T14:54:35.677Z,19.60
2023-04-08T14:59:41.535Z,19.60
2023-04-08T15:04:48.284Z,19.50
2023-04-08T15:09:54.230Z,19.50
2023-04-08T15:15:01.792Z,19.50
2023-04-08T15:20:08.008Z,19.60
2023-04-08T15:25:14.371Z,19.60
2023-04-08T15:30:25.974Z,19.70
2023-04-08T15:35:31.637Z,19.70
2023-04-08T15:40:37.498Z,19.90
2023-04-08T15:45:51.648Z,19.80
2023-04-08T15:50:57.743Z,19.70
2023-04-08T15:56:05.073Z,19.70
2023-04-08T16:01:10.467Z,19.70
2023-04-08T16:06:16.418Z,19.60
2023-04-08T16:11:25.689Z,19.60
2023-04-08T16:16:31.622Z,19.70
2023-04-08T16:21:37.625Z,19.70
2023-04-08T16:26:43.355Z,19.70
2023-04-08T16:31:49.087Z,19.60
2023-04-08T16:36:55.324Z,19.50
2023-04-08T16:42:03.551Z,19.50
2023-04-08T16:47:19.249Z,19.50
2023-04-08T16:52:28.634Z,19.50
2023-04-08T16:57:34.538Z,19.50
2023-04-08T17:02:40.391Z,19.50
2023-04-08T17:07:45.885Z,19.40
2023-04-08T17:12:51.581Z,19.40
2023-04-08T17:17:57.004Z,19.40
2023-04-08T17:23:02.629Z,19.40
2023-04-08T17:28:08.981Z,19.50
2023-04-08T17:33:14.356Z,19.60
2023-04-08T17:38:19.863Z,19.40
2023-04-08T17:43:25.889Z,19.30
2023-04-08T17:48:31.255Z,19.20
2023-04-08T17:53:39.535Z,19.30
2023-04-08T17:58:45.102Z,19.20
2023-04-08T18:03:52.841Z,19.10
2023-04-08T18:08:58.655Z,19.10
2023-04-08T18:14:03.945Z,19.10
2023-04-08T18:19:10.164Z,19.00
2023-04-08T18:24:15.962Z,19.20
2023-04-08T18:29:21.298Z,19.20
2023-04-08T18:34:28.218Z,19.10
2023-04-08T18:39:34.046Z,19.00
2023-04-08T18:44:39.731Z,18.90
2023-04-08T18:49:45.207Z,18.90
2023-04-08T18:54:50.700Z,19.00
2023-04-08T18:59:56.181Z,19.10
2023-04-08T19:05:01.920Z,19.10
2023-04-08T19:10:08.426Z,19.00
2023-04-08T19:15:13.988Z,19.00
2023-04-08T19:20:20.531Z,19.10
2023-04-08T19:25:26.467Z,19.20
2023-04-08T19:30:51.035Z,19.20
2023-04-08T19:35:57.862Z,19.20
2023-04-08T19:41:03.994Z,19.10
2023-04-08T19:46:09.196Z,19.20
2023-04-08T19:51:24.087Z,19.20
2023-04-08T19:56:35.383Z,19.30
2023-04-08T20:01:41.971Z,19.30
2023-04-08T20:06:47.396Z,19.30
2023-04-08T20:11:52.978Z,19.20
2023-04-08T20:16:59.370Z,19.30
2023-04-08T20:22:04.899Z,19.30
2023-04-08T20:27:10.833Z,19.30
2023-04-08T20:32:16.952Z,19.30
2023-04-08T20:37:23.024Z,19.20
2023-04-08T20:42:28.587Z,19.20
2023-04-08T20:47:34.877Z,19.20
2023-04-08T20:52:41.033Z,19.30
2023-04-08T20:58:07.217Z,19.30
2023-04-08T21:03:31.074Z,19.10
2023-04-08T21:08:36.471Z,19.10
2023-04-08T21:13:41.975Z,19.10
2023-04-08T21:18:47.424Z,19.10
2023-04-08T21:24:12.189Z,19.20
2023-04-08T21:29:17.929Z,19.10
2023-04-08T21:34:23.752Z,19.20
2023-04-08T21:39:29.085Z,19.20
2023-04-08T21:44:34.856Z,19.20
2023-04-08T21:49:40.698Z,19.20
2023-04-08T21:54:46.384Z,19.10
2023-04-08T21:59:52.141Z,19.10
2023-04-08T22:04:57.941Z,19.10
2023-04-08T22:10:04.906Z,19.00
2023-04-08T22:15:10.816Z,19.00
2023-04-08T22:20:16.245Z,19.10
2023-04-08T22:25:24.745Z,19.10
2023-04-08T22:30:30.398Z,19.10
2023-04-08T22:35:37.264Z,19.10
2023-04-08T22:40:42.949Z,19.10
2023-04-08T22:45:48.577Z,19.10
2023-04-08T22:50:54.428Z,19.10
2023-04-08T22:56:18.155Z,19.10
2023-04-08T23:01:25.049Z,19.00
2023-04-08T23:06:32.638Z,19.10
2023-04-08T23:11:56.191Z,19.10
2023-04-08T23:17:04.195Z,19.10
2023-04-08T23:22:11.124Z,19.10
2023-04-08T23:27:16.897Z,19.10
2023-04-08T23:32:22.615Z,19.10
2023-04-08T23:37:28.601Z,19.20
2023-04-08T23:42:34.156Z,19.20
2023-04-08T23:47:39.689Z,19.10
2023-04-08T23:52:45.748Z,19.10
2023-04-08T23:57:52.155Z,19.10
